Terminal Aerodrome Forecast
Issued by NWS

Home | Current Version | Previous Version | Text Only | Print | Product List | Glossary On
Versions: 1 2 3 4 5 6 7 8 9 10 11 12 13 14
000
FTUS45 KTFX 171722
TAFLWT
TAF
KLWT 171722Z 1718/1818 25013G23KT P6SM FEW090 SCT250
     FM180900 24020G32KT P6SM BKN050 BKN060=

USA.gov is the U.S. government's official web portal to all federal, state and local government web resources and services.